Time,TemperatureF,DewpointF,PressureIn,WindDirection,WindDirectionDegrees,WindSpeedMPH,WindSpeedGustMPH,Humidity,HourlyPrecipIn,Conditions,Clouds,dailyrainin,SoftwareType,DateUTC
2013-03-06 00:05:00,25.0,21.1,30.03,NNW,345,3.0,11.0,85,0.00,,,0.00,Wunderground v.1.13,2013-03-06 06:05:00,
2013-03-06 00:15:00,25.1,21.2,30.03,NNW,334,4.0,12.0,85,0.00,,,0.00,Wunderground v.1.13,2013-03-06 06:15:00,
2013-03-06 00:25:00,25.1,20.9,30.04,NW,324,6.0,6.0,84,0.00,,,0.00,Wunderground v.1.13,2013-03-06 06:25:00,
2013-03-06 00:35:00,25.1,20.9,30.05,North,351,5.0,11.0,84,0.00,,,0.00,Wunderground v.1.13,2013-03-06 06:35:00,
2013-03-06 00:40:00,25.1,20.9,30.05,NW,311,5.0,5.0,84,0.00,,,0.00,Wunderground v.1.13,2013-03-06 06:40:00,
2013-03-06 00:45:00,25.1,20.9,30.05,NNW,327,5.0,11.0,84,0.00,,,0.00,Wunderground v.1.13,2013-03-06 06:45:00,
2013-03-06 00:50:00,25.1,20.9,30.06,NNW,336,6.0,11.0,84,0.00,,,0.00,Wunderground v.1.13,2013-03-06 06:50:00,
2013-03-06 00:55:00,25.1,20.9,30.06,NNW,342,5.0,11.0,84,0.00,,,0.00,Wunderground v.1.13,2013-03-06 06:55:00,
2013-03-06 01:00:00,25.1,20.9,30.06,NW,325,5.0,5.0,84,0.00,,,0.00,Wunderground v.1.13,2013-03-06 07:00:00,
2013-03-06 01:05:00,25.3,21.1,30.06,North,355,7.0,16.0,84,0.00,,,0.00,Wunderground v.1.13,2013-03-06 07:05:00,
2013-03-06 01:15:00,25.1,20.9,30.06,North,355,5.0,16.0,84,0.00,,,0.00,Wunderground v.1.13,2013-03-06 07:15:00,
2013-03-06 01:20:00,25.1,20.9,30.06,NNW,327,7.0,7.0,84,0.00,,,0.00,Wunderground v.1.13,2013-03-06 07:20:00,
2013-03-06 01:30:00,25.1,20.9,30.06,NNW,337,5.0,16.0,84,0.00,,,0.00,Wunderground v.1.13,2013-03-06 07:30:00,
2013-03-06 01:40:00,25.1,20.9,30.07,WNW,297,5.0,16.0,84,0.00,,,0.00,Wunderground v.1.13,2013-03-06 07:40:00,
2013-03-06 01:45:00,25.1,20.9,30.07,North,350,5.0,16.0,84,0.00,,,0.00,Wunderground v.1.13,2013-03-06 07:45:00,
2013-03-06 01:50:00,25.1,20.9,30.08,NNW,339,4.0,16.0,84,0.00,,,0.00,Wunderground v.1.13,2013-03-06 07:50:00,
2013-03-06 01:55:00,25.1,20.9,30.08,NNW,328,6.0,16.0,84,0.00,,,0.00,Wunderground v.1.13,2013-03-06 07:55:00,
2013-03-06 02:00:00,25.1,20.9,30.08,NW,325,7.0,16.0,84,0.00,,,0.00,Wunderground v.1.13,2013-03-06 08:00:00,
2013-03-06 02:05:00,25.1,20.9,30.08,NW,319,5.0,5.0,84,0.00,,,0.00,Wunderground v.1.13,2013-03-06 08:05:00,
2013-03-06 02:15:00,25.1,21.2,30.08,NNW,333,6.0,14.0,85,0.00,,,0.00,Wunderground v.1.13,2013-03-06 08:15:00,
2013-03-06 02:25:00,25.1,21.2,30.08,NW,311,4.0,14.0,85,0.00,,,0.00,Wunderground v.1.13,2013-03-06 08:25:00,
2013-03-06 02:30:00,25.1,21.5,30.08,NW,309,4.0,14.0,86,0.00,,,0.00,Wunderground v.1.13,2013-03-06 08:30:00,
2013-03-06 02:40:00,25.0,21.4,30.09,WNW,302,5.0,14.0,86,0.00,,,0.00,Wunderground v.1.13,2013-03-06 08:40:00,
2013-03-06 02:50:00,24.8,21.5,30.09,North,355,6.0,14.0,87,0.00,,,0.00,Wunderground v.1.13,2013-03-06 08:50:00,
2013-03-06 02:55:00,24.8,21.5,30.09,WNW,302,6.0,6.0,87,0.00,,,0.00,Wunderground v.1.13,2013-03-06 08:55:00,
2013-03-06 03:05:00,24.8,21.5,30.09,WNW,302,6.0,6.0,87,0.00,,,0.00,Wunderground v.1.13,2013-03-06 09:05:00,
2013-03-06 03:15:00,24.8,21.8,30.09,NNW,337,4.0,15.0,88,0.00,,,0.00,Wunderground v.1.13,2013-03-06 09:15:00,
2013-03-06 03:25:00,25.0,21.7,30.09,NNW,329,5.0,5.0,87,0.00,,,0.00,Wunderground v.1.13,2013-03-06 09:25:00,
2013-03-06 03:35:00,25.0,21.7,30.10,NNW,331,4.0,15.0,87,0.00,,,0.00,Wunderground v.1.13,2013-03-06 09:35:00,
2013-03-06 03:40:00,25.0,21.7,30.10,NNW,333,4.0,15.0,87,0.00,,,0.00,Wunderground v.1.13,2013-03-06 09:40:00,
2013-03-06 03:50:00,25.1,21.8,30.11,WNW,301,5.0,5.0,87,0.00,,,0.00,Wunderground v.1.13,2013-03-06 09:50:00,
2013-03-06 04:00:00,25.1,21.8,30.11,NNW,346,4.0,15.0,87,0.00,,,0.00,Wunderground v.1.13,2013-03-06 10:00:00,
2013-03-06 04:05:00,25.1,21.8,30.11,NNW,340,4.0,4.0,87,0.00,,,0.00,Wunderground v.1.13,2013-03-06 10:05:00,
2013-03-06 04:15:00,25.3,22.0,30.11,NW,326,3.0,3.0,87,0.00,,,0.00,Wunderground v.1.13,2013-03-06 10:15:00,
2013-03-06 04:25:00,25.3,22.0,30.12,North,350,5.0,5.0,87,0.00,,,0.00,Wunderground v.1.13,2013-03-06 10:25:00,
2013-03-06 04:30:00,25.3,22.0,30.12,North,355,5.0,16.0,87,0.00,,,0.00,Wunderground v.1.13,2013-03-06 10:30:00,
2013-03-06 04:35:00,25.3,22.0,30.13,North,350,4.0,4.0,87,0.00,,,0.00,Wunderground v.1.13,2013-03-06 10:35:00,
2013-03-06 04:45:00,25.4,22.1,30.13,NNW,339,3.0,16.0,87,0.00,,,0.00,Wunderground v.1.13,2013-03-06 10:45:00,
2013-03-06 04:55:00,25.4,22.1,30.13,NW,323,4.0,16.0,87,0.00,,,0.00,Wunderground v.1.13,2013-03-06 10:55:00,
2013-03-06 05:00:00,25.4,22.1,30.13,NNE,27,4.0,4.0,87,0.00,,,0.00,Wunderground v.1.13,2013-03-06 11:00:00,
2013-03-06 05:05:00,25.4,22.1,30.13,NW,304,3.0,3.0,87,0.00,,,0.00,Wunderground v.1.13,2013-03-06 11:05:00,
2013-03-06 05:15:00,25.4,22.1,30.13,North,355,4.0,13.0,87,0.00,,,0.00,Wunderground v.1.13,2013-03-06 11:15:00,
2013-03-06 05:25:00,25.4,22.1,30.13,NNW,335,4.0,13.0,87,0.00,,,0.00,Wunderground v.1.13,2013-03-06 11:25:00,
2013-03-06 05:30:00,25.4,22.1,30.13,North,355,4.0,13.0,87,0.00,,,0.00,Wunderground v.1.13,2013-03-06 11:30:00,
2013-03-06 05:35:00,25.4,22.1,30.13,NNW,346,4.0,4.0,87,0.00,,,0.00,Wunderground v.1.13,2013-03-06 11:35:00,
2013-03-06 05:45:00,25.4,22.1,30.13,NNW,340,3.0,13.0,87,0.00,,,0.00,Wunderground v.1.13,2013-03-06 11:45:00,
2013-03-06 05:50:00,25.4,22.1,30.14,NW,326,3.0,3.0,87,0.00,,,0.00,Wunderground v.1.13,2013-03-06 11:50:00,
2013-03-06 06:00:00,25.4,22.1,30.14,NW,304,4.0,4.0,87,0.00,,,0.00,Wunderground v.1.13,2013-03-06 12:00:00,
2013-03-06 06:05:00,25.4,22.1,30.14,WNW,296,3.0,11.0,87,0.00,,,0.00,Wunderground v.1.13,2013-03-06 12:05:00,
2013-03-06 06:15:00,25.6,22.3,30.14,NW,311,4.0,11.0,87,0.00,,,0.00,Wunderground v.1.13,2013-03-06 12:15:00,
2013-03-06 06:20:00,25.6,22.3,30.15,NW,310,3.0,3.0,87,0.00,,,0.00,Wunderground v.1.13,2013-03-06 12:20:00,
2013-03-06 06:30:00,25.6,22.3,30.15,NW,306,4.0,11.0,87,0.00,,,0.00,Wunderground v.1.13,2013-03-06 12:30:00,
2013-03-06 06:40:00,25.6,22.3,30.16,NW,322,6.0,11.0,87,0.00,,,0.00,Wunderground v.1.13,2013-03-06 12:40:00,
2013-03-06 06:50:00,25.6,22.3,30.17,WNW,301,6.0,11.0,87,0.00,,,0.00,Wunderground v.1.13,2013-03-06 12:50:00,
2013-03-06 07:00:00,25.4,22.1,30.17,NW,317,5.0,5.0,87,0.00,,,0.00,Wunderground v.1.13,2013-03-06 13:00:00,
2013-03-06 07:05:00,25.4,22.1,30.18,WNW,286,6.0,6.0,87,0.00,,,0.00,Wunderground v.1.13,2013-03-06 13:05:00,
2013-03-06 07:15:00,25.4,22.1,30.18,WNW,299,6.0,13.0,87,0.00,,,0.00,Wunderground v.1.13,2013-03-06 13:15:00,
2013-03-06 07:25:00,25.3,22.2,30.19,NW,304,4.0,4.0,88,0.00,,,0.00,Wunderground v.1.13,2013-03-06 13:25:00,
2013-03-06 07:35:00,25.3,22.0,30.19,WNW,302,5.0,13.0,87,0.00,,,0.00,Wunderground v.1.13,2013-03-06 13:35:00,
2013-03-06 07:40:00,25.1,21.8,30.19,NNW,329,7.0,7.0,87,0.00,,,0.00,Wunderground v.1.13,2013-03-06 13:40:00,
2013-03-06 07:50:00,25.3,22.0,30.19,NW,304,5.0,13.0,87,0.00,,,0.00,Wunderground v.1.13,2013-03-06 13:50:00,
2013-03-06 07:55:00,25.4,22.1,30.19,WNW,292,4.0,4.0,87,0.00,,,0.00,Wunderground v.1.13,2013-03-06 13:55:00,
2013-03-06 08:00:00,25.4,22.1,30.19,NNW,332,5.0,5.0,87,0.00,,,0.00,Wunderground v.1.13,2013-03-06 14:00:00,
2013-03-06 08:05:00,25.6,22.3,30.20,NW,311,4.0,4.0,87,0.00,,,0.00,Wunderground v.1.13,2013-03-06 14:05:00,
2013-03-06 08:15:00,25.7,22.1,30.20,NW,304,5.0,12.0,86,0.00,,,0.00,Wunderground v.1.13,2013-03-06 14:15:00,
2013-03-06 08:20:00,25.7,22.1,30.20,WNW,292,6.0,12.0,86,0.00,,,0.00,Wunderground v.1.13,2013-03-06 14:20:00,
2013-03-06 08:25:00,25.7,22.1,30.20,NW,311,6.0,12.0,86,0.00,,,0.00,Wunderground v.1.13,2013-03-06 14:25:00,
2013-03-06 08:30:00,25.8,22.2,30.20,WNW,303,5.0,5.0,86,0.00,,,0.00,Wunderground v.1.13,2013-03-06 14:30:00,
2013-03-06 08:40:00,26.1,22.5,30.21,NW,307,5.0,5.0,86,0.00,,,0.00,Wunderground v.1.13,2013-03-06 14:40:00,
2013-03-06 08:50:00,26.4,22.5,30.20,NW,316,5.0,12.0,85,0.00,,,0.00,Wunderground v.1.13,2013-03-06 14:50:00,
2013-03-06 09:00:00,26.7,22.5,30.20,NW,323,5.0,12.0,84,0.00,,,0.00,Wunderground v.1.13,2013-03-06 15:00:00,
2013-03-06 09:10:00,27.2,23.0,30.21,NW,321,4.0,4.0,84,0.00,,,0.00,Wunderground v.1.13,2013-03-06 15:10:00,
2013-03-06 09:20:00,27.2,22.7,30.22,WNW,300,6.0,10.0,83,0.00,,,0.00,Wunderground v.1.13,2013-03-06 15:20:00,
2013-03-06 09:25:00,27.3,22.8,30.22,NW,318,6.0,6.0,83,0.00,,,0.00,Wunderground v.1.13,2013-03-06 15:25:00,
2013-03-06 09:30:00,27.5,22.7,30.22,NNW,336,6.0,6.0,82,0.00,,,0.00,Wunderground v.1.13,2013-03-06 15:30:00,
2013-03-06 09:40:00,27.8,23.0,30.22,NW,319,4.0,10.0,82,0.00,,,0.00,Wunderground v.1.13,2013-03-06 15:40:00,
2013-03-06 09:45:00,27.8,23.0,30.22,WNW,302,4.0,4.0,82,0.00,,,0.00,Wunderground v.1.13,2013-03-06 15:45:00,
2013-03-06 09:50:00,27.9,23.1,30.22,NNW,333,4.0,10.0,82,0.00,,,0.00,Wunderground v.1.13,2013-03-06 15:50:00,
2013-03-06 10:00:00,27.9,23.1,30.22,West,276,5.0,10.0,82,0.00,,,0.00,Wunderground v.1.13,2013-03-06 16:00:00,
2013-03-06 10:05:00,27.8,22.7,30.22,WNW,288,6.0,6.0,81,0.00,,,0.00,Wunderground v.1.13,2013-03-06 16:05:00,
2013-03-06 10:15:00,28.1,23.0,30.22,NW,321,5.0,12.0,81,0.00,,,0.00,Wunderground v.1.13,2013-03-06 16:15:00,
2013-03-06 10:25:00,28.4,23.3,30.22,WNW,295,5.0,12.0,81,0.00,,,0.00,Wunderground v.1.13,2013-03-06 16:25:00,
2013-03-06 10:35:00,29.0,23.6,30.22,NW,320,5.0,12.0,80,0.00,,,0.01,Wunderground v.1.13,2013-03-06 16:35:00,
2013-03-06 10:45:00,28.8,23.4,30.22,NW,317,6.0,12.0,80,0.07,,,0.02,Wunderground v.1.13,2013-03-06 16:45:00,
2013-03-06 10:55:00,29.0,23.3,30.22,NW,319,6.0,6.0,79,0.04,,,0.03,Wunderground v.1.13,2013-03-06 16:55:00,
2013-03-06 11:05:00,28.8,23.1,30.22,WNW,298,7.0,13.0,79,0.04,,,0.03,Wunderground v.1.13,2013-03-06 17:05:00,
2013-03-06 11:15:00,29.1,23.4,30.22,NW,325,6.0,13.0,79,0.04,,,0.04,Wunderground v.1.13,2013-03-06 17:15:00,
2013-03-06 11:20:00,29.1,23.4,30.22,WNW,291,6.0,6.0,79,0.04,,,0.04,Wunderground v.1.13,2013-03-06 17:20:00,
2013-03-06 11:25:00,29.1,23.4,30.22,NW,321,7.0,13.0,79,0.00,,,0.04,Wunderground v.1.13,2013-03-06 17:25:00,
2013-03-06 11:35:00,29.1,23.4,30.22,WNW,302,8.0,13.0,79,0.00,,,0.05,Wunderground v.1.13,2013-03-06 17:35:00,
2013-03-06 11:40:00,29.4,23.7,30.22,WNW,286,7.0,7.0,79,0.00,,,0.05,Wunderground v.1.13,2013-03-06 17:40:00,
2013-03-06 11:45:00,29.4,23.4,30.22,WNW,284,7.0,7.0,78,0.04,,,0.06,Wunderground v.1.13,2013-03-06 17:45:00,
2013-03-06 11:55:00,29.4,23.7,30.22,NW,308,7.0,7.0,79,0.04,,,0.06,Wunderground v.1.13,2013-03-06 17:55:00,
2013-03-06 12:00:00,29.4,23.4,30.22,WNW,300,7.0,7.0,78,0.00,,,0.06,Wunderground v.1.13,2013-03-06 18:00:00,
2013-03-06 12:05:00,29.4,23.4,30.22,NW,309,7.0,7.0,78,0.00,,,0.06,Wunderground v.1.13,2013-03-06 18:05:00,
2013-03-06 12:15:00,29.5,23.5,30.22,WNW,299,7.0,7.0,78,0.00,,,0.07,Wunderground v.1.13,2013-03-06 18:15:00,
2013-03-06 12:25:00,29.8,23.5,30.22,NNW,339,7.0,14.0,77,0.00,,,0.07,Wunderground v.1.13,2013-03-06 18:25:00,
2013-03-06 12:30:00,29.8,23.8,30.22,NNW,331,7.0,14.0,78,0.00,,,0.08,Wunderground v.1.13,2013-03-06 18:30:00,
2013-03-06 12:40:00,30.0,23.7,30.22,WNW,296,7.0,7.0,77,0.00,,,0.08,Wunderground v.1.13,2013-03-06 18:40:00,
2013-03-06 12:45:00,29.8,23.5,30.22,WNW,300,7.0,7.0,77,0.00,,,0.08,Wunderground v.1.13,2013-03-06 18:45:00,
2013-03-06 12:50:00,30.1,24.1,30.22,NNW,342,6.0,14.0,78,0.00,,,0.08,Wunderground v.1.13,2013-03-06 18:50:00,
2013-03-06 13:00:00,30.6,24.6,30.22,NNW,337,4.0,4.0,78,0.00,,,0.09,Wunderground v.1.13,2013-03-06 19:00:00,
2013-03-06 13:05:00,30.7,24.3,30.21,WNW,288,4.0,13.0,77,0.00,,,0.09,Wunderground v.1.13,2013-03-06 19:05:00,
2013-03-06 13:15:00,31.0,24.3,30.21,NW,310,5.0,13.0,76,0.00,,,0.09,Wunderground v.1.13,2013-03-06 19:15:00,
2013-03-06 13:25:00,30.6,23.9,30.21,NW,305,6.0,6.0,76,0.00,,,0.10,Wunderground v.1.13,2013-03-06 19:25:00,
2013-03-06 13:30:00,30.6,24.2,30.21,WNW,295,6.0,13.0,77,0.00,,,0.10,Wunderground v.1.13,2013-03-06 19:30:00,
2013-03-06 13:35:00,30.6,24.2,30.21,WNW,302,6.0,6.0,77,0.00,,,0.10,Wunderground v.1.13,2013-03-06 19:35:00,
2013-03-06 13:45:00,30.6,24.2,30.21,WNW,292,6.0,6.0,77,0.00,,,0.10,Wunderground v.1.13,2013-03-06 19:45:00,
2013-03-06 13:50:00,30.6,23.9,30.21,WNW,293,6.0,13.0,76,0.00,,,0.11,Wunderground v.1.13,2013-03-06 19:50:00,
2013-03-06 14:00:00,30.7,24.3,30.21,WNW,298,6.0,6.0,77,0.00,,,0.11,Wunderground v.1.13,2013-03-06 20:00:00,
2013-03-06 14:05:00,30.7,24.0,30.21,NW,306,6.0,6.0,76,0.00,,,0.11,Wunderground v.1.13,2013-03-06 20:05:00,
2013-03-06 14:15:00,30.7,24.7,30.21,NNW,330,5.0,5.0,78,0.00,,,0.12,Wunderground v.1.13,2013-03-06 20:15:00,
2013-03-06 14:25:00,30.9,24.5,30.21,NNW,327,5.0,13.0,77,0.00,,,0.12,Wunderground v.1.13,2013-03-06 20:25:00,
2013-03-06 14:30:00,30.6,23.9,30.21,NW,315,6.0,13.0,76,0.00,,,0.12,Wunderground v.1.13,2013-03-06 20:30:00,
2013-03-06 14:40:00,30.6,24.6,30.21,NW,315,6.0,6.0,78,0.00,,,0.12,Wunderground v.1.13,2013-03-06 20:40:00,
2013-03-06 14:50:00,30.6,24.2,30.21,WNW,290,6.0,6.0,77,0.00,,,0.13,Wunderground v.1.13,2013-03-06 20:50:00,
2013-03-06 15:00:00,30.9,24.2,30.21,NW,311,6.0,13.0,76,0.00,,,0.13,Wunderground v.1.13,2013-03-06 21:00:00,
2013-03-06 15:05:00,31.0,24.3,30.21,WNW,302,5.0,5.0,76,0.00,,,0.13,Wunderground v.1.13,2013-03-06 21:05:00,
2013-03-06 15:15:00,31.2,24.5,30.21,NW,320,5.0,5.0,76,0.00,,,0.13,Wunderground v.1.13,2013-03-06 21:15:00,
2013-03-06 15:20:00,31.2,24.5,30.22,NW,311,5.0,13.0,76,0.00,,,0.14,Wunderground v.1.13,2013-03-06 21:20:00,
2013-03-06 15:30:00,31.5,24.5,30.22,WNW,295,4.0,4.0,75,0.00,,,0.14,Wunderground v.1.13,2013-03-06 21:30:00,
2013-03-06 15:35:00,31.5,24.5,30.22,WNW,301,4.0,4.0,75,0.00,,,0.14,Wunderground v.1.13,2013-03-06 21:35:00,
2013-03-06 15:45:00,31.5,24.5,30.22,NNW,335,4.0,13.0,75,0.00,,,0.14,Wunderground v.1.13,2013-03-06 21:45:00,
2013-03-06 15:55:00,31.5,24.8,30.22,NW,306,4.0,4.0,76,0.00,,,0.15,Wunderground v.1.13,2013-03-06 21:55:00,
2013-03-06 16:00:00,31.3,24.6,30.22,NW,305,3.0,3.0,76,0.00,,,0.15,Wunderground v.1.13,2013-03-06 22:00:00,
2013-03-06 16:05:00,31.2,24.2,30.22,WNW,298,5.0,10.0,75,0.00,,,0.15,Wunderground v.1.13,2013-03-06 22:05:00,
2013-03-06 16:15:00,31.0,24.3,30.22,WNW,298,6.0,10.0,76,0.00,,,0.15,Wunderground v.1.13,2013-03-06 22:15:00,
2013-03-06 16:25:00,31.0,24.3,30.22,NW,308,4.0,4.0,76,0.00,,,0.15,Wunderground v.1.13,2013-03-06 22:25:00,
2013-03-06 16:35:00,31.2,24.5,30.22,WNW,288,2.0,10.0,76,0.00,,,0.15,Wunderground v.1.13,2013-03-06 22:35:00,
2013-03-06 16:40:00,31.0,24.3,30.22,WNW,288,2.0,2.0,76,0.00,,,0.15,Wunderground v.1.13,2013-03-06 22:40:00,
2013-03-06 16:45:00,31.0,24.3,30.22,NW,309,2.0,10.0,76,0.00,,,0.15,Wunderground v.1.13,2013-03-06 22:45:00,
2013-03-06 16:50:00,31.0,24.0,30.23,WNW,302,3.0,3.0,75,0.00,,,0.15,Wunderground v.1.13,2013-03-06 22:50:00,
2013-03-06 16:55:00,30.9,23.9,30.23,NW,306,3.0,10.0,75,0.00,,,0.15,Wunderground v.1.13,2013-03-06 22:55:00,
2013-03-06 17:00:00,30.9,23.9,30.23,NW,306,2.0,10.0,75,0.00,,,0.15,Wunderground v.1.13,2013-03-06 23:00:00,
2013-03-06 17:05:00,30.9,24.2,30.23,NW,306,1.0,10.0,76,0.00,,,0.15,Wunderground v.1.13,2013-03-06 23:05:00,
2013-03-06 17:15:00,30.7,23.7,30.23,NW,304,1.0,1.0,75,0.00,,,0.15,Wunderground v.1.13,2013-03-06 23:15:00,
2013-03-06 17:20:00,30.7,23.7,30.23,NW,304,1.0,1.0,75,0.00,,,0.15,Wunderground v.1.13,2013-03-06 23:20:00,
2013-03-06 17:30:00,30.7,23.7,30.23,NW,304,1.0,1.0,75,0.00,,,0.15,Wunderground v.1.13,2013-03-06 23:30:00,
2013-03-06 17:35:00,30.6,23.6,30.23,NW,318,1.0,1.0,75,0.00,,,0.15,Wunderground v.1.13,2013-03-06 23:35:00,
2013-03-06 17:45:00,30.4,23.4,30.23,NW,311,1.0,1.0,75,0.00,,,0.15,Wunderground v.1.13,2013-03-06 23:45:00,
2013-03-06 17:50:00,30.4,23.4,30.23,NW,311,1.0,1.0,75,0.00,,,0.15,Wunderground v.1.13,2013-03-06 23:50:00,
2013-03-06 17:55:00,30.3,23.3,30.23,NW,311,0.0,10.0,75,0.00,,,0.15,Wunderground v.1.13,2013-03-06 23:55:00,
2013-03-06 18:00:00,30.3,23.3,30.23,NW,311,1.0,1.0,75,0.00,,,0.15,Wunderground v.1.13,2013-03-07 00:00:00,
2013-03-06 18:05:00,30.3,23.3,30.23,NW,311,1.0,7.0,75,0.00,,,0.15,Wunderground v.1.13,2013-03-07 00:05:00,
2013-03-06 18:15:00,30.3,23.3,30.23,NW,311,1.0,1.0,75,0.00,,,0.15,Wunderground v.1.13,2013-03-07 00:15:00,
2013-03-06 18:20:00,30.3,23.3,30.24,NW,311,0.0,7.0,75,0.00,,,0.15,Wunderground v.1.13,2013-03-07 00:20:00,
2013-03-06 18:25:00,30.1,23.4,30.24,NW,311,0.0,7.0,76,0.00,,,0.15,Wunderground v.1.13,2013-03-07 00:25:00,
2013-03-06 18:30:00,30.1,23.4,30.24,NW,311,0.0,7.0,76,0.00,,,0.15,Wunderground v.1.13,2013-03-07 00:30:00,
2013-03-06 18:35:00,30.1,23.4,30.24,NW,311,0.0,7.0,76,0.00,,,0.15,Wunderground v.1.13,2013-03-07 00:35:00,
2013-03-06 18:40:00,30.0,23.4,30.24,NW,311,0.0,7.0,76,0.00,,,0.15,Wunderground v.1.13,2013-03-07 00:40:00,
2013-03-06 18:50:00,30.0,23.7,30.25,NW,311,0.0,7.0,77,0.00,,,0.15,Wunderground v.1.13,2013-03-07 00:50:00,
2013-03-06 18:55:00,30.0,23.4,30.25,NW,311,0.0,7.0,76,0.00,,,0.15,Wunderground v.1.13,2013-03-07 00:55:00,
2013-03-06 19:00:00,30.0,23.7,30.25,NW,311,0.0,7.0,77,0.00,,,0.15,Wunderground v.1.13,2013-03-07 01:00:00,
2013-03-06 19:05:00,30.0,23.4,30.25,NW,311,0.0,5.0,76,0.00,,,0.15,Wunderground v.1.13,2013-03-07 01:05:00,
2013-03-06 19:15:00,29.8,23.5,30.25,NW,308,0.0,5.0,77,0.00,,,0.15,Wunderground v.1.13,2013-03-07 01:15:00,
2013-03-06 19:25:00,29.8,23.5,30.25,NW,306,0.0,5.0,77,0.00,,,0.15,Wunderground v.1.13,2013-03-07 01:25:00,
2013-03-06 19:30:00,29.8,23.5,30.25,NW,306,0.0,5.0,77,0.00,,,0.15,Wunderground v.1.13,2013-03-07 01:30:00,
2013-03-06 19:35:00,29.8,23.5,30.25,NW,306,0.0,5.0,77,0.00,,,0.15,Wunderground v.1.13,2013-03-07 01:35:00,
2013-03-06 19:45:00,29.7,23.4,30.25,NW,306,0.0,5.0,77,0.00,,,0.15,Wunderground v.1.13,2013-03-07 01:45:00,
2013-03-06 19:50:00,29.7,23.1,30.25,WNW,302,0.0,5.0,76,0.00,,,0.15,Wunderground v.1.13,2013-03-07 01:50:00,
2013-03-06 19:55:00,29.7,23.1,30.25,WNW,301,1.0,5.0,76,0.00,,,0.15,Wunderground v.1.13,2013-03-07 01:55:00,
2013-03-06 20:00:00,29.7,23.1,30.25,WNW,298,1.0,1.0,76,0.00,,,0.15,Wunderground v.1.13,2013-03-07 02:00:00,
2013-03-06 20:05:00,29.5,22.9,30.25,WNW,292,1.0,1.0,76,0.00,,,0.15,Wunderground v.1.13,2013-03-07 02:05:00,
2013-03-06 20:15:00,29.4,22.8,30.25,WNW,292,1.0,6.0,76,0.00,,,0.15,Wunderground v.1.13,2013-03-07 02:15:00,
2013-03-06 20:20:00,29.4,22.8,30.25,WNW,292,1.0,6.0,76,0.00,,,0.15,Wunderground v.1.13,2013-03-07 02:20:00,
2013-03-06 20:30:00,29.4,22.5,30.25,WNW,291,2.0,2.0,75,0.00,,,0.15,Wunderground v.1.13,2013-03-07 02:30:00,
2013-03-06 20:40:00,29.3,22.4,30.25,West,276,2.0,6.0,75,0.00,,,0.15,Wunderground v.1.13,2013-03-07 02:40:00,
2013-03-06 20:45:00,29.3,22.4,30.25,NW,316,3.0,3.0,75,0.00,,,0.15,Wunderground v.1.13,2013-03-07 02:45:00,
2013-03-06 20:55:00,29.1,21.8,30.25,WNW,291,2.0,2.0,74,0.00,,,0.15,Wunderground v.1.13,2013-03-07 02:55:00,
2013-03-06 21:00:00,29.1,21.8,30.25,WNW,288,2.0,6.0,74,0.00,,,0.15,Wunderground v.1.13,2013-03-07 03:00:00,
2013-03-06 21:05:00,29.1,21.8,30.25,WNW,288,1.0,1.0,74,0.00,,,0.15,Wunderground v.1.13,2013-03-07 03:05:00,
2013-03-06 21:15:00,29.0,22.1,30.25,WNW,288,1.0,1.0,75,0.00,,,0.15,Wunderground v.1.13,2013-03-07 03:15:00,
2013-03-06 21:25:00,28.8,21.6,30.25,WNW,288,0.0,8.0,74,0.00,,,0.15,Wunderground v.1.13,2013-03-07 03:25:00,
2013-03-06 21:35:00,28.8,21.6,30.25,WNW,288,0.0,8.0,74,0.00,,,0.15,Wunderground v.1.13,2013-03-07 03:35:00,
2013-03-06 21:45:00,28.7,21.5,30.25,WNW,288,0.0,8.0,74,0.00,,,0.15,Wunderground v.1.13,2013-03-07 03:45:00,
2013-03-06 21:55:00,28.7,21.5,30.25,WNW,288,0.0,8.0,74,0.00,,,0.15,Wunderground v.1.13,2013-03-07 03:55:00,
2013-03-06 22:05:00,28.5,21.6,30.26,WNW,288,0.0,0.0,75,0.00,,,0.15,Wunderground v.1.13,2013-03-07 04:05:00,
2013-03-06 22:15:00,28.4,21.5,30.26,WNW,288,0.0,0.0,75,0.00,,,0.15,Wunderground v.1.13,2013-03-07 04:15:00,
2013-03-06 22:25:00,28.2,21.6,30.26,WNW,288,0.0,0.0,76,0.00,,,0.15,Wunderground v.1.13,2013-03-07 04:25:00,
2013-03-06 22:35:00,28.2,21.3,30.26,WNW,288,0.0,0.0,75,0.00,,,0.15,Wunderground v.1.13,2013-03-07 04:35:00,
2013-03-06 22:45:00,28.2,21.3,30.26,WNW,288,1.0,1.0,75,0.00,,,0.15,Wunderground v.1.13,2013-03-07 04:45:00,
2013-03-06 22:50:00,28.2,21.0,30.26,WNW,288,1.0,4.0,74,0.00,,,0.15,Wunderground v.1.13,2013-03-07 04:50:00,
2013-03-06 22:55:00,28.1,20.9,30.26,WNW,288,1.0,4.0,74,0.00,,,0.15,Wunderground v.1.13,2013-03-07 04:55:00,
2013-03-06 23:00:00,27.9,20.7,30.26,WNW,288,1.0,1.0,74,0.00,,,0.15,Wunderground v.1.13,2013-03-07 05:00:00,
2013-03-06 23:05:00,27.9,20.7,30.25,WNW,288,0.0,7.0,74,0.00,,,0.15,Wunderground v.1.13,2013-03-07 05:05:00,
2013-03-06 23:10:00,27.8,20.6,30.25,WNW,288,1.0,1.0,74,0.00,,,0.15,Wunderground v.1.13,2013-03-07 05:10:00,
2013-03-06 23:15:00,27.6,20.4,30.25,WNW,288,1.0,7.0,74,0.00,,,0.15,Wunderground v.1.13,2013-03-07 05:15:00,
2013-03-06 23:20:00,27.6,20.4,30.25,WNW,288,1.0,1.0,74,0.00,,,0.15,Wunderground v.1.13,2013-03-07 05:20:00,
2013-03-06 23:25:00,27.5,20.0,30.25,WNW,286,1.0,1.0,73,0.00,,,0.15,Wunderground v.1.13,2013-03-07 05:25:00,
2013-03-06 23:30:00,27.5,20.0,30.25,WNW,286,1.0,1.0,73,0.00,,,0.15,Wunderground v.1.13,2013-03-07 05:30:00,
2013-03-06 23:40:00,27.3,19.8,30.25,WNW,286,1.0,7.0,73,0.00,,,0.15,Wunderground v.1.13,2013-03-07 05:40:00,
2013-03-06 23:45:00,27.3,19.8,30.25,WNW,286,1.0,7.0,73,0.00,,,0.15,Wunderground v.1.13,2013-03-07 05:45:00,
2013-03-06 23:50:00,27.2,19.7,30.25,WNW,286,1.0,1.0,73,0.00,,,0.15,Wunderground v.1.13,2013-03-07 05:50:00,